NCAR-RAP Real-Time Weather Data

Output produced by METARs form (24 January 2022  23:04 UTC)
found at http://weather.rap.ucar.edu/surface/
 
KBTV 242154Z 20005KT 10SM BKN100 BKN200 M09/M17 A2987 RMK AO2 SLP122 T10891167 $
KBTV 242054Z 23003KT 10SM BKN120 M08/M18 A2986 RMK AO2 SLP120 T10831178 $
KBTV 242009Z COR 20005KT 10SM BKN140 M09/M18 A2986 RMK AO2 SLP119 T10891183 $
KBTV 241854Z 23005KT 10SM BKN090 BKN160 M09/M17 A2989 RMK AO2 SLP128 T10891167
KBTV 241754Z 20006KT 10SM FEW040 SCT080 BKN160 M10/M18 A2991 RMK AO2 SLP135 4/005 T11001178 11100 21211 58023
KBTV 241654Z 22006KT 10SM SCT200 M11/M18 A2994 RMK AO2 SLP147 T11111178
KBTV 241554Z 00000KT 10SM FEW020 FEW200 M13/M20 A2998 RMK AO2 SLP159 T11331200
KBTV 241454Z 00000KT 10SM FEW020 FEW200 M17/M21 A2998 RMK AO2 SLP159 T11671206 51009
KBTV 241354Z 00000KT 10SM FEW120 SCT200 M19/M22 A2997 RMK AO2 SLP156 T11941217